Ocean King D — V7TV6 — position and weather

sailwx.info

Track history (hours):
 
Tides and Currents Weather Stations Pressure Air Temp Water Temp Dewpoint Dewpoint Depression Visibility Wind Speed Wind Dir Waves Ship Positions

Ocean King D

Last reported at 2016-May-19 22:26 UTC. Time now 2016-May-27 10:18 UTC.
Position N 38°01' E 024°41'.

Length 190 m; draft 10.2 m.

Type: Cargo ship. MMSI: 538003892.

Date/timePositionNaut miles runAvg speedWind from/ knotsBaromVisibWave heightAir tempDewpointWater temp
2016-May-19 22:26N 38°01' E 024°41'1112.7
2016-May-19 21:34N 37°50' E 024°36'1312.6
2016-May-19 20:34N 37°39' E 024°30'1312.2
2016-May-19 19:28N 37°28' E 024°19'1112.6
2016-May-19 18:33N 37°20' E 024°10'2612.8
2016-May-19 16:33N 37°01' E 023°48'1313.2
2016-May-19 15:33N 36°51' E 023°37'1313.2
2016-May-19 14:33N 36°41' E 023°27'37712.5
2016-May-18 08:18N 35°59' E 015°41'1512.7
2016-May-18 07:08N 35°58' E 015°23'812.6
2016-May-18 06:31N 35°57' E 015°13'1212.7
2016-May-18 05:33N 35°56' E 014°58'6 3.1
2016-May-18 03:29N 35°56' E 014°50'0 0.0
2016-May-18 02:32N 35°56' E 014°50'0 0.0
2016-May-18 01:32N 35°56' E 014°50'0 0.0
2016-May-18 00:32N 35°56' E 014°50'0 0.0
2016-May-17 23:32N 35°56' E 014°50'0 0.0
2016-May-17 22:29N 35°56' E 014°50'0 0.0
2016-May-17 21:32N 35°56' E 014°50'0 0.0
2016-May-17 20:32N 35°56' E 014°50'2 1.7
2016-May-17 19:33N 35°57' E 014°49'1010.4
2016-May-17 18:33N 36°01' E 014°37'1312.9
2016-May-17 17:34N 36°06' E 014°22'1313.0
2016-May-17 16:33N 36°12' E 014°08'1312.7
2016-May-17 15:33N 36°17' E 013°54'1212.3
2016-May-17 14:33N 36°23' E 013°40'1212.2
2016-May-17 13:33N 36°28' E 013°26'1212.5
2016-May-17 12:33N 36°33' E 013°12'1412.8
2016-May-17 11:30N 36°38' E 012°57'46712.6
2016-May-15 22:31N 37°02' E 003°13'1414.2
2016-May-15 21:32N 37°01' E 002°56'39413.1
2016-May-14 15:25N 36°04' W 005°09'1112.3
2016-May-14 14:33N 36°05' W 005°23'5 5.4
2016-May-14 13:33N 35°60' W 005°24'  
2016-May-11 15:33N 37°55' W 023°21'1712.4
2016-May-11 14:09N 37°58' W 023°43'712.1
2016-May-11 13:34N 37°59' W 023°52'1212.3
2016-May-11 12:33N 38°02' W 024°07'1212.4
2016-May-11 11:33N 38°05' W 024°23'1212.2
2016-May-11 10:34N 38°09' W 024°37'1211.9
2016-May-11 09:33N 38°15' W 024°50'1211.6
2016-May-11 08:33N 38°17' W 025°05'1211.7
2016-May-11 07:33N 38°18' W 025°20'1212.0
2016-May-11 06:34N 38°20' W 025°35'1211.8
2016-May-11 05:33N 38°21' W 025°50'1211.8
2016-May-11 04:33N 38°22' W 026°05'1211.7
2016-May-11 03:33N 38°23' W 026°20'1111.4
2016-May-11 02:33N 38°24' W 026°34'1111.2
2016-May-11 01:34N 38°24' W 026°48'1111.0
2016-May-11 00:33N 38°22' W 027°02'1111.2
2016-May-10 23:33N 38°19' W 027°16'1111.5
2016-May-10 22:34N 38°18' W 027°31'1111.3
2016-May-10 21:33N 38°19' W 027°45'1212.2
2016-May-10 20:33N 38°19' W 028°01'1212.4
2016-May-10 19:33N 38°20' W 028°17'1211.9
2016-May-10 18:33N 38°23' W 028°31'1212.1
2016-May-10 17:33N 38°28' W 028°45'1211.6
2016-May-10 16:33N 38°33' W 028°59'1111.3
2016-May-10 15:33N 38°38' W 029°12'9 9.4
2016-May-10 14:33N 38°35' W 029°23'10 9.8
2016-May-10 13:33N 38°32' W 029°35'10 9.7
2016-May-10 12:33N 38°29' W 029°47'9 9.0
2016-May-10 11:33N 38°26' W 029°57'9 9.1
2016-May-10 10:33N 38°23' W 030°08'9 9.4
2016-May-10 09:33N 38°20' W 030°20'11 9.4
2016-May-10 08:22N 38°15' W 030°33'  
Track history (hours):
 
Tides and Currents Weather Stations Pressure Air Temp Water Temp Dewpoint Dewpoint Depression Visibility Wind Speed Wind Dir Waves Ship Positions

Ocean King D

Last reported at 2016-May-19 22:26 UTC. Time now 2016-May-27 10:18 UTC.
Position N 38°01' E 024°41'.

Length 190 m; draft 10.2 m.

Type: Cargo ship. MMSI: 538003892.

Date/timePositionNaut miles runAvg speedWind from/ knotsBaromVisibWave heightAir tempDewpointWater temp
2016-May-19 22:26N 38°01' E 024°41'1112.7
2016-May-19 21:34N 37°50' E 024°36'1312.6
2016-May-19 20:34N 37°39' E 024°30'1312.2
2016-May-19 19:28N 37°28' E 024°19'1112.6
2016-May-19 18:33N 37°20' E 024°10'2612.8
2016-May-19 16:33N 37°01' E 023°48'1313.2
2016-May-19 15:33N 36°51' E 023°37'1313.2
2016-May-19 14:33N 36°41' E 023°27'37712.5
2016-May-18 08:18N 35°59' E 015°41'1512.7
2016-May-18 07:08N 35°58' E 015°23'812.6
2016-May-18 06:31N 35°57' E 015°13'1212.7
2016-May-18 05:33N 35°56' E 014°58'6 3.1
2016-May-18 03:29N 35°56' E 014°50'0 0.0
2016-May-18 02:32N 35°56' E 014°50'0 0.0
2016-May-18 01:32N 35°56' E 014°50'0 0.0
2016-May-18 00:32N 35°56' E 014°50'0 0.0
2016-May-17 23:32N 35°56' E 014°50'0 0.0
2016-May-17 22:29N 35°56' E 014°50'0 0.0
2016-May-17 21:32N 35°56' E 014°50'0 0.0
2016-May-17 20:32N 35°56' E 014°50'2 1.7
2016-May-17 19:33N 35°57' E 014°49'1010.4
2016-May-17 18:33N 36°01' E 014°37'1312.9
2016-May-17 17:34N 36°06' E 014°22'1313.0
2016-May-17 16:33N 36°12' E 014°08'1312.7
2016-May-17 15:33N 36°17' E 013°54'1212.3
2016-May-17 14:33N 36°23' E 013°40'1212.2
2016-May-17 13:33N 36°28' E 013°26'1212.5
2016-May-17 12:33N 36°33' E 013°12'1412.8
2016-May-17 11:30N 36°38' E 012°57'46712.6
2016-May-15 22:31N 37°02' E 003°13'1414.2
2016-May-15 21:32N 37°01' E 002°56'39413.1
2016-May-14 15:25N 36°04' W 005°09'1112.3
2016-May-14 14:33N 36°05' W 005°23'5 5.4
2016-May-14 13:33N 35°60' W 005°24'  
2016-May-11 15:33N 37°55' W 023°21'1712.4
2016-May-11 14:09N 37°58' W 023°43'712.1
2016-May-11 13:34N 37°59' W 023°52'1212.3
2016-May-11 12:33N 38°02' W 024°07'1212.4
2016-May-11 11:33N 38°05' W 024°23'1212.2
2016-May-11 10:34N 38°09' W 024°37'1211.9
2016-May-11 09:33N 38°15' W 024°50'1211.6
2016-May-11 08:33N 38°17' W 025°05'1211.7
2016-May-11 07:33N 38°18' W 025°20'1212.0
2016-May-11 06:34N 38°20' W 025°35'1211.8
2016-May-11 05:33N 38°21' W 025°50'1211.8
2016-May-11 04:33N 38°22' W 026°05'1211.7
2016-May-11 03:33N 38°23' W 026°20'1111.4
2016-May-11 02:33N 38°24' W 026°34'1111.2
2016-May-11 01:34N 38°24' W 026°48'1111.0
2016-May-11 00:33N 38°22' W 027°02'1111.2
2016-May-10 23:33N 38°19' W 027°16'1111.5
2016-May-10 22:34N 38°18' W 027°31'1111.3
2016-May-10 21:33N 38°19' W 027°45'1212.2
2016-May-10 20:33N 38°19' W 028°01'1212.4
2016-May-10 19:33N 38°20' W 028°17'1211.9
2016-May-10 18:33N 38°23' W 028°31'1212.1
2016-May-10 17:33N 38°28' W 028°45'1211.6
2016-May-10 16:33N 38°33' W 028°59'1111.3
2016-May-10 15:33N 38°38' W 029°12'9 9.4
2016-May-10 14:33N 38°35' W 029°23'10 9.8
2016-May-10 13:33N 38°32' W 029°35'10 9.7
2016-May-10 12:33N 38°29' W 029°47'9 9.0
2016-May-10 11:33N 38°26' W 029°57'9 9.1
2016-May-10 10:33N 38°23' W 030°08'9 9.4
2016-May-10 09:33N 38°20' W 030°20'11 9.4
2016-May-10 08:22N 38°15' W 030°33'  

Dump ship's entire track history